sensor_id;sensor_type;location;lat;lon;timestamp;P1;durP1;ratioP1;P2;durP2;ratioP2
30635;SDS011;17400;52.392;9.750;2022-10-03T00:01:16;5.20;;;1.60;;
30635;SDS011;17400;52.392;9.750;2022-10-03T00:04:04;3.70;;;1.40;;
30635;SDS011;17400;52.392;9.750;2022-10-03T00:06:49;3.88;;;1.33;;
30635;SDS011;17400;52.392;9.750;2022-10-03T00:09:32;3.53;;;1.40;;
30635;SDS011;17400;52.392;9.750;2022-10-03T00:12:34;3.40;;;1.02;;
30635;SDS011;17400;52.392;9.750;2022-10-03T00:15:14;3.78;;;1.23;;
30635;SDS011;17400;52.392;9.750;2022-10-03T00:17:49;13.70;;;1.85;;
30635;SDS011;17400;52.392;9.750;2022-10-03T00:20:40;6.53;;;1.20;;
30635;SDS011;17400;52.392;9.750;2022-10-03T00:23:16;4.38;;;1.35;;
30635;SDS011;17400;52.392;9.750;2022-10-03T00:25:54;6.10;;;1.33;;
30635;SDS011;17400;52.392;9.750;2022-10-03T00:28:55;7.38;;;1.63;;
30635;SDS011;17400;52.392;9.750;2022-10-03T00:31:34;5.70;;;1.58;;
30635;SDS011;17400;52.392;9.750;2022-10-03T00:34:11;7.38;;;2.53;;
30635;SDS011;17400;52.392;9.750;2022-10-03T00:36:55;4.22;;;2.10;;
30635;SDS011;17400;52.392;9.750;2022-10-03T00:39:39;4.72;;;1.65;;
30635;SDS011;17400;52.392;9.750;2022-10-03T00:42:34;9.95;;;2.10;;
30635;SDS011;17400;52.392;9.750;2022-10-03T00:48:40;4.05;;;1.77;;
30635;SDS011;17400;52.392;9.750;2022-10-03T00:51:33;3.97;;;2.00;;
30635;SDS011;17400;52.392;9.750;2022-10-03T00:57:16;6.35;;;1.58;;
30635;SDS011;17400;52.392;9.750;2022-10-03T01:00:10;4.15;;;1.67;;
30635;SDS011;17400;52.392;9.750;2022-10-03T01:02:47;3.45;;;1.10;;
30635;SDS011;17400;52.392;9.750;2022-10-03T01:05:30;5.57;;;1.92;;
30635;SDS011;17400;52.392;9.750;2022-10-03T01:08:07;4.43;;;1.63;;
30635;SDS011;17400;52.392;9.750;2022-10-03T01:10:59;5.32;;;1.42;;
30635;SDS011;17400;52.392;9.750;2022-10-03T01:13:38;8.45;;;1.85;;
30635;SDS011;17400;52.392;9.750;2022-10-03T01:16:18;6.75;;;1.67;;
30635;SDS011;17400;52.392;9.750;2022-10-03T01:18:55;5.72;;;1.67;;
30635;SDS011;17400;52.392;9.750;2022-10-03T01:21:36;5.55;;;1.70;;
30635;SDS011;17400;52.392;9.750;2022-10-03T01:24:24;6.25;;;1.48;;
30635;SDS011;17400;52.392;9.750;2022-10-03T01:27:12;3.45;;;1.33;;
30635;SDS011;17400;52.392;9.750;2022-10-03T01:29:48;3.88;;;1.42;;
30635;SDS011;17400;52.392;9.750;2022-10-03T01:32:39;5.25;;;1.40;;
30635;SDS011;17400;52.392;9.750;2022-10-03T01:35:16;6.82;;;1.20;;
30635;SDS011;17400;52.392;9.750;2022-10-03T01:37:52;5.18;;;2.33;;
30635;SDS011;17400;52.392;9.750;2022-10-03T01:40:33;3.45;;;1.33;;
30635;SDS011;17400;52.392;9.750;2022-10-03T01:43:08;4.95;;;1.30;;
30635;SDS011;17400;52.392;9.750;2022-10-03T01:45:51;5.53;;;1.80;;
30635;SDS011;17400;52.392;9.750;2022-10-03T01:48:30;5.15;;;2.60;;
30635;SDS011;17400;52.392;9.750;2022-10-03T01:51:08;7.85;;;1.38;;
30635;SDS011;17400;52.392;9.750;2022-10-03T01:53:53;6.15;;;1.55;;
30635;SDS011;17400;52.392;9.750;2022-10-03T01:56:30;2.35;;;1.10;;
30635;SDS011;17400;52.392;9.750;2022-10-03T01:59:04;4.07;;;1.27;;
30635;SDS011;17400;52.392;9.750;2022-10-03T02:01:45;3.25;;;0.82;;
30635;SDS011;17400;52.392;9.750;2022-10-03T02:04:19;5.97;;;1.30;;
30635;SDS011;17400;52.392;9.750;2022-10-03T02:06:58;3.60;;;1.25;;
30635;SDS011;17400;52.392;9.750;2022-10-03T02:09:35;8.88;;;1.40;;
30635;SDS011;17400;52.392;9.750;2022-10-03T02:12:21;8.88;;;2.28;;
30635;SDS011;17400;52.392;9.750;2022-10-03T02:14:56;8.68;;;2.67;;
30635;SDS011;17400;52.392;9.750;2022-10-03T02:17:35;3.47;;;1.08;;
30635;SDS011;17400;52.392;9.750;2022-10-03T02:20:17;4.00;;;1.30;;
30635;SDS011;17400;52.392;9.750;2022-10-03T02:22:51;4.35;;;1.38;;
30635;SDS011;17400;52.392;9.750;2022-10-03T02:25:23;6.80;;;1.58;;
30635;SDS011;17400;52.392;9.750;2022-10-03T02:31:05;8.93;;;1.98;;
30635;SDS011;17400;52.392;9.750;2022-10-03T02:40:30;2.83;;;1.05;;
30635;SDS011;17400;52.392;9.750;2022-10-03T02:43:17;3.08;;;1.08;;
30635;SDS011;17400;52.392;9.750;2022-10-03T02:49:32;4.13;;;1.70;;
30635;SDS011;17400;52.392;9.750;2022-10-03T02:52:25;6.45;;;1.17;;
30635;SDS011;17400;52.392;9.750;2022-10-03T02:55:27;4.85;;;1.35;;
30635;SDS011;17400;52.392;9.750;2022-10-03T02:58:33;5.18;;;1.42;;
30635;SDS011;17400;52.392;9.750;2022-10-03T03:01:29;6.32;;;2.05;;
30635;SDS011;17400;52.392;9.750;2022-10-03T03:04:21;7.85;;;1.63;;
30635;SDS011;17400;52.392;9.750;2022-10-03T03:07:20;9.68;;;1.33;;
30635;SDS011;17400;52.392;9.750;2022-10-03T03:10:20;6.60;;;1.65;;
30635;SDS011;17400;52.392;9.750;2022-10-03T03:13:10;7.03;;;1.85;;
30635;SDS011;17400;52.392;9.750;2022-10-03T03:19:05;4.30;;;1.10;;
30635;SDS011;17400;52.392;9.750;2022-10-03T03:21:47;8.75;;;2.13;;
30635;SDS011;17400;52.392;9.750;2022-10-03T03:24:21;5.68;;;1.60;;
30635;SDS011;17400;52.392;9.750;2022-10-03T03:27:12;6.57;;;1.40;;
30635;SDS011;17400;52.392;9.750;2022-10-03T03:30:01;3.42;;;1.13;;
30635;SDS011;17400;52.392;9.750;2022-10-03T03:32:48;5.30;;;1.42;;
30635;SDS011;17400;52.392;9.750;2022-10-03T03:35:31;7.43;;;1.27;;
30635;SDS011;17400;52.392;9.750;2022-10-03T03:38:19;2.45;;;1.08;;
30635;SDS011;17400;52.392;9.750;2022-10-03T03:41:02;4.07;;;1.63;;
30635;SDS011;17400;52.392;9.750;2022-10-03T03:43:46;5.47;;;1.40;;
30635;SDS011;17400;52.392;9.750;2022-10-03T03:46:32;5.03;;;1.10;;
30635;SDS011;17400;52.392;9.750;2022-10-03T03:49:17;6.82;;;1.15;;
30635;SDS011;17400;52.392;9.750;2022-10-03T03:52:00;7.55;;;1.95;;
30635;SDS011;17400;52.392;9.750;2022-10-03T03:54:51;5.10;;;1.60;;
30635;SDS011;17400;52.392;9.750;2022-10-03T03:57:50;7.03;;;1.75;;
30635;SDS011;17400;52.392;9.750;2022-10-03T04:00:29;8.23;;;2.03;;
30635;SDS011;17400;52.392;9.750;2022-10-03T04:03:15;9.15;;;1.85;;
30635;SDS011;17400;52.392;9.750;2022-10-03T04:06:00;7.07;;;1.40;;
30635;SDS011;17400;52.392;9.750;2022-10-03T04:08:40;6.60;;;2.00;;
30635;SDS011;17400;52.392;9.750;2022-10-03T04:11:30;2.00;;;0.98;;
30635;SDS011;17400;52.392;9.750;2022-10-03T04:14:18;5.35;;;1.73;;
30635;SDS011;17400;52.392;9.750;2022-10-03T04:17:18;5.50;;;1.25;;
30635;SDS011;17400;52.392;9.750;2022-10-03T04:20:17;5.50;;;0.90;;
30635;SDS011;17400;52.392;9.750;2022-10-03T04:23:06;6.57;;;1.83;;
30635;SDS011;17400;52.392;9.750;2022-10-03T04:26:00;3.70;;;1.30;;
30635;SDS011;17400;52.392;9.750;2022-10-03T04:28:42;5.72;;;1.17;;
30635;SDS011;17400;52.392;9.750;2022-10-03T04:31:27;5.07;;;1.15;;
30635;SDS011;17400;52.392;9.750;2022-10-03T04:34:12;6.32;;;1.27;;
30635;SDS011;17400;52.392;9.750;2022-10-03T04:39:44;3.00;;;1.00;;
30635;SDS011;17400;52.392;9.750;2022-10-03T04:42:34;2.40;;;1.35;;
30635;SDS011;17400;52.392;9.750;2022-10-03T04:45:16;3.05;;;1.00;;
30635;SDS011;17400;52.392;9.750;2022-10-03T04:47:56;3.47;;;1.52;;
30635;SDS011;17400;52.392;9.750;2022-10-03T04:50:32;2.85;;;1.17;;
30635;SDS011;17400;52.392;9.750;2022-10-03T04:53:11;5.22;;;1.35;;
30635;SDS011;17400;52.392;9.750;2022-10-03T04:55:49;3.00;;;1.27;;
30635;SDS011;17400;52.392;9.750;2022-10-03T04:58:23;9.75;;;1.98;;
30635;SDS011;17400;52.392;9.750;2022-10-03T05:01:02;2.80;;;1.30;;
30635;SDS011;17400;52.392;9.750;2022-10-03T05:03:46;4.78;;;1.30;;
30635;SDS011;17400;52.392;9.750;2022-10-03T05:06:27;4.40;;;1.23;;
30635;SDS011;17400;52.392;9.750;2022-10-03T05:09:11;6.93;;;1.33;;
30635;SDS011;17400;52.392;9.750;2022-10-03T05:11:52;6.35;;;1.67;;
30635;SDS011;17400;52.392;9.750;2022-10-03T05:14:27;5.65;;;1.73;;
30635;SDS011;17400;52.392;9.750;2022-10-03T05:17:19;6.80;;;1.83;;
30635;SDS011;17400;52.392;9.750;2022-10-03T05:19:56;5.22;;;1.13;;
30635;SDS011;17400;52.392;9.750;2022-10-03T05:22:37;6.07;;;1.42;;
30635;SDS011;17400;52.392;9.750;2022-10-03T05:25:15;10.75;;;2.78;;
30635;SDS011;17400;52.392;9.750;2022-10-03T05:27:50;2.95;;;1.27;;
30635;SDS011;17400;52.392;9.750;2022-10-03T05:30:30;4.07;;;1.38;;
30635;SDS011;17400;52.392;9.750;2022-10-03T05:33:10;2.53;;;1.23;;
30635;SDS011;17400;52.392;9.750;2022-10-03T05:35:48;2.97;;;1.35;;
30635;SDS011;17400;52.392;9.750;2022-10-03T05:38:38;6.18;;;1.45;;
30635;SDS011;17400;52.392;9.750;2022-10-03T05:41:25;3.70;;;1.33;;
30635;SDS011;17400;52.392;9.750;2022-10-03T05:44:00;4.10;;;1.40;;
30635;SDS011;17400;52.392;9.750;2022-10-03T05:46:37;4.82;;;1.25;;
30635;SDS011;17400;52.392;9.750;2022-10-03T05:49:26;4.95;;;1.45;;
30635;SDS011;17400;52.392;9.750;2022-10-03T05:52:19;4.70;;;1.58;;
30635;SDS011;17400;52.392;9.750;2022-10-03T05:55:11;4.40;;;1.25;;
30635;SDS011;17400;52.392;9.750;2022-10-03T06:00:50;6.18;;;1.55;;
30635;SDS011;17400;52.392;9.750;2022-10-03T06:03:45;7.45;;;1.45;;
30635;SDS011;17400;52.392;9.750;2022-10-03T06:06:33;5.30;;;1.33;;
30635;SDS011;17400;52.392;9.750;2022-10-03T06:09:26;16.30;;;3.10;;
30635;SDS011;17400;52.392;9.750;2022-10-03T06:12:09;2.58;;;1.20;;
30635;SDS011;17400;52.392;9.750;2022-10-03T06:17:38;4.63;;;1.15;;
30635;SDS011;17400;52.392;9.750;2022-10-03T06:23:28;3.90;;;1.50;;
30635;SDS011;17400;52.392;9.750;2022-10-03T06:26:19;3.45;;;1.65;;
30635;SDS011;17400;52.392;9.750;2022-10-03T06:32:09;4.32;;;1.52;;
30635;SDS011;17400;52.392;9.750;2022-10-03T06:35:09;3.17;;;1.35;;
30635;SDS011;17400;52.392;9.750;2022-10-03T06:38:12;3.00;;;1.13;;
30635;SDS011;17400;52.392;9.750;2022-10-03T06:44:21;8.05;;;1.55;;
30635;SDS011;17400;52.392;9.750;2022-10-03T06:50:25;6.35;;;1.70;;
30635;SDS011;17400;52.392;9.750;2022-10-03T06:53:09;4.20;;;1.77;;
30635;SDS011;17400;52.392;9.750;2022-10-03T06:56:08;5.57;;;1.63;;
30635;SDS011;17400;52.392;9.750;2022-10-03T07:02:26;5.82;;;1.60;;
30635;SDS011;17400;52.392;9.750;2022-10-03T07:08:23;3.47;;;1.55;;
30635;SDS011;17400;52.392;9.750;2022-10-03T07:11:06;7.45;;;1.58;;
30635;SDS011;17400;52.392;9.750;2022-10-03T07:17:09;4.63;;;1.48;;
30635;SDS011;17400;52.392;9.750;2022-10-03T07:20:02;5.80;;;1.65;;
30635;SDS011;17400;52.392;9.750;2022-10-03T07:22:48;4.03;;;2.22;;
30635;SDS011;17400;52.392;9.750;2022-10-03T07:25:46;6.68;;;1.70;;
30635;SDS011;17400;52.392;9.750;2022-10-03T07:31:38;8.20;;;1.73;;
30635;SDS011;17400;52.392;9.750;2022-10-03T07:34:28;5.03;;;1.55;;
30635;SDS011;17400;52.392;9.750;2022-10-03T07:37:19;4.72;;;1.67;;
30635;SDS011;17400;52.392;9.750;2022-10-03T07:40:25;5.25;;;1.60;;
30635;SDS011;17400;52.392;9.750;2022-10-03T07:43:18;6.68;;;1.63;;
30635;SDS011;17400;52.392;9.750;2022-10-03T07:46:15;7.68;;;2.40;;
30635;SDS011;17400;52.392;9.750;2022-10-03T07:52:09;7.60;;;1.77;;
30635;SDS011;17400;52.392;9.750;2022-10-03T07:55:01;9.23;;;1.90;;
30635;SDS011;17400;52.392;9.750;2022-10-03T07:57:51;3.08;;;1.25;;
30635;SDS011;17400;52.392;9.750;2022-10-03T08:00:39;3.45;;;1.13;;
30635;SDS011;17400;52.392;9.750;2022-10-03T08:06:25;3.05;;;1.35;;
30635;SDS011;17400;52.392;9.750;2022-10-03T08:09:07;4.35;;;1.58;;
30635;SDS011;17400;52.392;9.750;2022-10-03T08:11:50;5.80;;;1.63;;
30635;SDS011;17400;52.392;9.750;2022-10-03T08:14:31;3.28;;;1.20;;
30635;SDS011;17400;52.392;9.750;2022-10-03T08:20:24;2.80;;;0.82;;
30635;SDS011;17400;52.392;9.750;2022-10-03T08:23:10;3.80;;;1.20;;
30635;SDS011;17400;52.392;9.750;2022-10-03T08:25:54;2.55;;;1.25;;
30635;SDS011;17400;52.392;9.750;2022-10-03T08:28:37;4.90;;;1.70;;
30635;SDS011;17400;52.392;9.750;2022-10-03T08:31:24;3.35;;;0.93;;
30635;SDS011;17400;52.392;9.750;2022-10-03T08:34:16;9.18;;;1.70;;
30635;SDS011;17400;52.392;9.750;2022-10-03T08:37:11;4.90;;;0.95;;
30635;SDS011;17400;52.392;9.750;2022-10-03T08:43:36;11.35;;;2.85;;
30635;SDS011;17400;52.392;9.750;2022-10-03T08:46:30;8.35;;;2.15;;
30635;SDS011;17400;52.392;9.750;2022-10-03T08:49:33;6.88;;;1.23;;
30635;SDS011;17400;52.392;9.750;2022-10-03T08:52:23;5.30;;;1.55;;
30635;SDS011;17400;52.392;9.750;2022-10-03T09:04:56;4.95;;;1.40;;
30635;SDS011;17400;52.392;9.750;2022-10-03T09:07:44;10.77;;;2.70;;
30635;SDS011;17400;52.392;9.750;2022-10-03T09:10:35;4.03;;;0.88;;
30635;SDS011;17400;52.392;9.750;2022-10-03T09:13:35;2.67;;;1.02;;
30635;SDS011;17400;52.392;9.750;2022-10-03T09:16:44;13.05;;;1.33;;
30635;SDS011;17400;52.392;9.750;2022-10-03T09:22:42;5.13;;;1.38;;
30635;SDS011;17400;52.392;9.750;2022-10-03T09:25:38;6.32;;;1.90;;
30635;SDS011;17400;52.392;9.750;2022-10-03T09:28:38;2.75;;;1.33;;
30635;SDS011;17400;52.392;9.750;2022-10-03T09:31:31;3.33;;;1.77;;
30635;SDS011;17400;52.392;9.750;2022-10-03T09:37:36;7.05;;;1.88;;
30635;SDS011;17400;52.392;9.750;2022-10-03T09:40:37;5.10;;;1.90;;
30635;SDS011;17400;52.392;9.750;2022-10-03T09:43:51;5.93;;;1.48;;
30635;SDS011;17400;52.392;9.750;2022-10-03T09:56:15;5.10;;;1.58;;
30635;SDS011;17400;52.392;9.750;2022-10-03T09:59:18;3.75;;;1.00;;
30635;SDS011;17400;52.392;9.750;2022-10-03T10:02:08;5.28;;;1.40;;
30635;SDS011;17400;52.392;9.750;2022-10-03T10:08:09;4.05;;;1.85;;
30635;SDS011;17400;52.392;9.750;2022-10-03T10:13:57;7.90;;;3.47;;
30635;SDS011;17400;52.392;9.750;2022-10-03T10:20:10;6.60;;;2.72;;
30635;SDS011;17400;52.392;9.750;2022-10-03T10:23:00;7.38;;;1.90;;
30635;SDS011;17400;52.392;9.750;2022-10-03T10:26:01;9.48;;;4.65;;
30635;SDS011;17400;52.392;9.750;2022-10-03T10:35:27;6.00;;;1.60;;
30635;SDS011;17400;52.392;9.750;2022-10-03T10:38:22;2.97;;;1.35;;
30635;SDS011;17400;52.392;9.750;2022-10-03T10:41:03;2.67;;;1.25;;
30635;SDS011;17400;52.392;9.750;2022-10-03T10:56:48;4.72;;;1.08;;
30635;SDS011;17400;52.392;9.750;2022-10-03T10:59:42;4.32;;;1.30;;
30635;SDS011;17400;52.392;9.750;2022-10-03T11:09:26;3.70;;;1.08;;
30635;SDS011;17400;52.392;9.750;2022-10-03T11:12:26;3.50;;;1.42;;
30635;SDS011;17400;52.392;9.750;2022-10-03T11:15:29;3.45;;;0.98;;
30635;SDS011;17400;52.392;9.750;2022-10-03T11:21:54;1.60;;;0.88;;
30635;SDS011;17400;52.392;9.750;2022-10-03T11:27:55;4.88;;;1.23;;
30635;SDS011;17400;52.392;9.750;2022-10-03T11:33:54;1.90;;;0.98;;
30635;SDS011;17400;52.392;9.750;2022-10-03T11:36:59;4.95;;;1.88;;
30635;SDS011;17400;52.392;9.750;2022-10-03T11:39:34;4.80;;;1.27;;
30635;SDS011;17400;52.392;9.750;2022-10-03T11:42:14;1.55;;;0.95;;
30635;SDS011;17400;52.392;9.750;2022-10-03T11:44:51;5.85;;;1.45;;
30635;SDS011;17400;52.392;9.750;2022-10-03T11:47:27;1.90;;;0.93;;
30635;SDS011;17400;52.392;9.750;2022-10-03T11:53:16;6.43;;;1.95;;
30635;SDS011;17400;52.392;9.750;2022-10-03T11:55:55;7.50;;;3.83;;
30635;SDS011;17400;52.392;9.750;2022-10-03T11:58:40;8.38;;;1.83;;
30635;SDS011;17400;52.392;9.750;2022-10-03T12:01:31;5.65;;;1.70;;
30635;SDS011;17400;52.392;9.750;2022-10-03T12:04:19;8.70;;;2.88;;
30635;SDS011;17400;52.392;9.750;2022-10-03T12:06:56;6.72;;;2.13;;
30635;SDS011;17400;52.392;9.750;2022-10-03T12:09:46;4.65;;;2.08;;
30635;SDS011;17400;52.392;9.750;2022-10-03T12:12:27;7.32;;;2.00;;
30635;SDS011;17400;52.392;9.750;2022-10-03T12:15:04;2.38;;;1.17;;
30635;SDS011;17400;52.392;9.750;2022-10-03T12:17:56;2.60;;;0.82;;
30635;SDS011;17400;52.392;9.750;2022-10-03T12:20:31;3.03;;;1.33;;
30635;SDS011;17400;52.392;9.750;2022-10-03T12:23:11;3.35;;;0.85;;
30635;SDS011;17400;52.392;9.750;2022-10-03T12:25:54;1.77;;;1.00;;
30635;SDS011;17400;52.392;9.750;2022-10-03T12:28:24;1.30;;;0.73;;
30635;SDS011;17400;52.392;9.750;2022-10-03T12:31:02;4.40;;;1.23;;
30635;SDS011;17400;52.392;9.750;2022-10-03T12:33:45;4.07;;;0.90;;
30635;SDS011;17400;52.392;9.750;2022-10-03T12:36:18;2.78;;;1.10;;
30635;SDS011;17400;52.392;9.750;2022-10-03T12:38:55;9.30;;;1.70;;
30635;SDS011;17400;52.392;9.750;2022-10-03T12:44:47;3.60;;;1.05;;
30635;SDS011;17400;52.392;9.750;2022-10-03T12:47:34;3.10;;;1.33;;
30635;SDS011;17400;52.392;9.750;2022-10-03T12:50:27;2.53;;;1.20;;
30635;SDS011;17400;52.392;9.750;2022-10-03T12:53:16;3.53;;;1.10;;
30635;SDS011;17400;52.392;9.750;2022-10-03T13:01:37;4.45;;;1.05;;
30635;SDS011;17400;52.392;9.750;2022-10-03T13:04:27;2.38;;;0.82;;
30635;SDS011;17400;52.392;9.750;2022-10-03T13:07:17;3.05;;;0.88;;
30635;SDS011;17400;52.392;9.750;2022-10-03T13:10:00;6.25;;;1.38;;
30635;SDS011;17400;52.392;9.750;2022-10-03T13:12:38;4.30;;;1.10;;
30635;SDS011;17400;52.392;9.750;2022-10-03T13:18:42;2.25;;;0.95;;
30635;SDS011;17400;52.392;9.750;2022-10-03T13:21:16;5.68;;;1.48;;
30635;SDS011;17400;52.392;9.750;2022-10-03T13:24:08;1.75;;;0.65;;
30635;SDS011;17400;52.392;9.750;2022-10-03T13:26:50;5.72;;;1.20;;
30635;SDS011;17400;52.392;9.750;2022-10-03T13:29:25;2.42;;;0.88;;
30635;SDS011;17400;52.392;9.750;2022-10-03T13:32:09;3.97;;;0.80;;
30635;SDS011;17400;52.392;9.750;2022-10-03T13:38:02;1.95;;;1.33;;
30635;SDS011;17400;52.392;9.750;2022-10-03T13:40:42;4.82;;;1.35;;
30635;SDS011;17400;52.392;9.750;2022-10-03T13:43:15;6.13;;;1.00;;
30635;SDS011;17400;52.392;9.750;2022-10-03T13:45:47;1.40;;;0.75;;
30635;SDS011;17400;52.392;9.750;2022-10-03T13:48:22;1.92;;;0.60;;
30635;SDS011;17400;52.392;9.750;2022-10-03T13:50:54;2.40;;;0.65;;
30635;SDS011;17400;52.392;9.750;2022-10-03T13:53:41;2.95;;;0.77;;
30635;SDS011;17400;52.392;9.750;2022-10-03T13:56:31;3.03;;;0.80;;
30635;SDS011;17400;52.392;9.750;2022-10-03T13:59:10;3.58;;;0.70;;
30635;SDS011;17400;52.392;9.750;2022-10-03T14:01:47;3.60;;;0.50;;
30635;SDS011;17400;52.392;9.750;2022-10-03T14:04:33;1.67;;;0.25;;
30635;SDS011;17400;52.392;9.750;2022-10-03T14:07:14;4.68;;;0.90;;
30635;SDS011;17400;52.392;9.750;2022-10-03T14:13:07;3.35;;;0.55;;
30635;SDS011;17400;52.392;9.750;2022-10-03T14:15:47;8.23;;;1.35;;
30635;SDS011;17400;52.392;9.750;2022-10-03T14:18:24;3.42;;;1.00;;
30635;SDS011;17400;52.392;9.750;2022-10-03T14:21:18;2.72;;;0.82;;
30635;SDS011;17400;52.392;9.750;2022-10-03T14:23:59;3.22;;;0.52;;
30635;SDS011;17400;52.392;9.750;2022-10-03T14:26:40;5.07;;;0.60;;
30635;SDS011;17400;52.392;9.750;2022-10-03T14:29:18;3.03;;;0.85;;
30635;SDS011;17400;52.392;9.750;2022-10-03T14:31:55;2.17;;;0.60;;
30635;SDS011;17400;52.392;9.750;2022-10-03T14:34:37;3.67;;;0.90;;
30635;SDS011;17400;52.392;9.750;2022-10-03T14:37:14;1.05;;;0.57;;
30635;SDS011;17400;52.392;9.750;2022-10-03T14:39:51;2.42;;;0.63;;
30635;SDS011;17400;52.392;9.750;2022-10-03T14:42:42;2.85;;;0.60;;
30635;SDS011;17400;52.392;9.750;2022-10-03T14:45:21;3.05;;;0.75;;
30635;SDS011;17400;52.392;9.750;2022-10-03T14:47:55;2.72;;;1.10;;
30635;SDS011;17400;52.392;9.750;2022-10-03T14:50:29;1.52;;;0.73;;
30635;SDS011;17400;52.392;9.750;2022-10-03T14:52:58;2.65;;;0.70;;
30635;SDS011;17400;52.392;9.750;2022-10-03T14:55:31;2.15;;;0.93;;
30635;SDS011;17400;52.392;9.750;2022-10-03T14:58:11;2.72;;;1.65;;
30635;SDS011;17400;52.392;9.750;2022-10-03T15:00:44;0.98;;;0.70;;
30635;SDS011;17400;52.392;9.750;2022-10-03T15:09:00;1.13;;;0.60;;
30635;SDS011;17400;52.392;9.750;2022-10-03T15:11:31;2.75;;;0.88;;
30635;SDS011;17400;52.392;9.750;2022-10-03T15:14:03;2.47;;;0.63;;
30635;SDS011;17400;52.392;9.750;2022-10-03T15:16:37;5.05;;;1.70;;
30635;SDS011;17400;52.392;9.750;2022-10-03T15:19:12;2.63;;;0.85;;
30635;SDS011;17400;52.392;9.750;2022-10-03T15:21:44;1.80;;;0.70;;
30635;SDS011;17400;52.392;9.750;2022-10-03T15:24:17;1.88;;;0.98;;
30635;SDS011;17400;52.392;9.750;2022-10-03T15:26:53;3.60;;;1.20;;
30635;SDS011;17400;52.392;9.750;2022-10-03T15:29:26;4.32;;;1.25;;
30635;SDS011;17400;52.392;9.750;2022-10-03T15:31:55;5.38;;;0.95;;
30635;SDS011;17400;52.392;9.750;2022-10-03T15:34:25;3.60;;;1.20;;
30635;SDS011;17400;52.392;9.750;2022-10-03T15:36:57;3.97;;;1.48;;
30635;SDS011;17400;52.392;9.750;2022-10-03T15:39:30;3.70;;;1.50;;
30635;SDS011;17400;52.392;9.750;2022-10-03T15:42:02;3.00;;;1.30;;
30635;SDS011;17400;52.392;9.750;2022-10-03T15:44:50;6.18;;;1.27;;
30635;SDS011;17400;52.392;9.750;2022-10-03T15:47:20;4.72;;;1.05;;
30635;SDS011;17400;52.392;9.750;2022-10-03T15:49:51;4.47;;;1.33;;
30635;SDS011;17400;52.392;9.750;2022-10-03T15:52:23;3.42;;;1.20;;
30635;SDS011;17400;52.392;9.750;2022-10-03T15:54:58;3.13;;;1.48;;
30635;SDS011;17400;52.392;9.750;2022-10-03T15:57:39;3.08;;;1.40;;
30635;SDS011;17400;52.392;9.750;2022-10-03T16:00:18;6.10;;;1.45;;
30635;SDS011;17400;52.392;9.750;2022-10-03T16:02:53;5.53;;;1.90;;
30635;SDS011;17400;52.392;9.750;2022-10-03T16:05:26;3.65;;;1.60;;
30635;SDS011;17400;52.392;9.750;2022-10-03T16:07:57;4.53;;;1.52;;
30635;SDS011;17400;52.392;9.750;2022-10-03T16:10:31;4.15;;;1.98;;
30635;SDS011;17400;52.392;9.750;2022-10-03T16:13:06;2.35;;;1.15;;
30635;SDS011;17400;52.392;9.750;2022-10-03T16:15:56;2.70;;;1.42;;
30635;SDS011;17400;52.392;9.750;2022-10-03T16:21:48;4.53;;;1.20;;
30635;SDS011;17400;52.392;9.750;2022-10-03T16:24:26;3.30;;;0.90;;
30635;SDS011;17400;52.392;9.750;2022-10-03T16:27:00;3.55;;;1.17;;
30635;SDS011;17400;52.392;9.750;2022-10-03T16:29:34;3.85;;;1.17;;
30635;SDS011;17400;52.392;9.750;2022-10-03T16:32:06;1.38;;;1.05;;
30635;SDS011;17400;52.392;9.750;2022-10-03T16:34:42;2.05;;;0.88;;
30635;SDS011;17400;52.392;9.750;2022-10-03T16:37:16;2.28;;;0.88;;
30635;SDS011;17400;52.392;9.750;2022-10-03T16:39:51;6.78;;;1.50;;
30635;SDS011;17400;52.392;9.750;2022-10-03T16:42:22;1.85;;;0.80;;
30635;SDS011;17400;52.392;9.750;2022-10-03T16:44:54;3.00;;;0.90;;
30635;SDS011;17400;52.392;9.750;2022-10-03T16:47:30;6.35;;;1.05;;
30635;SDS011;17400;52.392;9.750;2022-10-03T16:50:02;2.50;;;1.42;;
30635;SDS011;17400;52.392;9.750;2022-10-03T16:52:50;4.28;;;1.63;;
30635;SDS011;17400;52.392;9.750;2022-10-03T16:55:21;10.80;;;2.97;;
30635;SDS011;17400;52.392;9.750;2022-10-03T16:57:56;5.43;;;3.03;;
30635;SDS011;17400;52.392;9.750;2022-10-03T17:00:29;6.68;;;3.58;;
30635;SDS011;17400;52.392;9.750;2022-10-03T17:03:13;8.02;;;4.05;;
30635;SDS011;17400;52.392;9.750;2022-10-03T17:05:44;7.68;;;3.75;;
30635;SDS011;17400;52.392;9.750;2022-10-03T17:08:13;5.97;;;3.10;;
30635;SDS011;17400;52.392;9.750;2022-10-03T17:11:05;8.82;;;4.10;;
30635;SDS011;17400;52.392;9.750;2022-10-03T17:13:38;9.52;;;4.78;;
30635;SDS011;17400;52.392;9.750;2022-10-03T17:16:11;7.90;;;2.78;;
30635;SDS011;17400;52.392;9.750;2022-10-03T17:18:44;8.10;;;2.10;;
30635;SDS011;17400;52.392;9.750;2022-10-03T17:21:28;5.47;;;2.22;;
30635;SDS011;17400;52.392;9.750;2022-10-03T17:24:00;7.88;;;3.33;;
30635;SDS011;17400;52.392;9.750;2022-10-03T17:26:34;6.10;;;2.10;;
30635;SDS011;17400;52.392;9.750;2022-10-03T17:29:08;5.20;;;2.45;;
30635;SDS011;17400;52.392;9.750;2022-10-03T17:31:43;9.13;;;2.75;;
30635;SDS011;17400;52.392;9.750;2022-10-03T17:34:16;4.20;;;2.15;;
30635;SDS011;17400;52.392;9.750;2022-10-03T17:39:42;5.68;;;1.92;;
30635;SDS011;17400;52.392;9.750;2022-10-03T17:42:29;4.82;;;2.10;;
30635;SDS011;17400;52.392;9.750;2022-10-03T17:45:10;7.30;;;2.60;;
30635;SDS011;17400;52.392;9.750;2022-10-03T17:47:49;7.28;;;3.03;;
30635;SDS011;17400;52.392;9.750;2022-10-03T17:50:25;6.93;;;2.80;;
30635;SDS011;17400;52.392;9.750;2022-10-03T17:52:57;3.60;;;1.60;;
30635;SDS011;17400;52.392;9.750;2022-10-03T17:55:28;5.45;;;1.88;;
30635;SDS011;17400;52.392;9.750;2022-10-03T17:57:58;4.70;;;2.20;;
30635;SDS011;17400;52.392;9.750;2022-10-03T18:00:34;3.85;;;1.98;;
30635;SDS011;17400;52.392;9.750;2022-10-03T18:03:06;6.97;;;3.20;;
30635;SDS011;17400;52.392;9.750;2022-10-03T18:05:39;12.05;;;4.32;;
30635;SDS011;17400;52.392;9.750;2022-10-03T18:08:12;9.70;;;2.92;;
30635;SDS011;17400;52.392;9.750;2022-10-03T18:10:45;8.18;;;2.78;;
30635;SDS011;17400;52.392;9.750;2022-10-03T18:13:15;8.13;;;3.85;;
30635;SDS011;17400;52.392;9.750;2022-10-03T18:16:03;6.78;;;3.33;;
30635;SDS011;17400;52.392;9.750;2022-10-03T18:18:53;5.43;;;2.92;;
30635;SDS011;17400;52.392;9.750;2022-10-03T18:21:34;4.90;;;2.28;;
30635;SDS011;17400;52.392;9.750;2022-10-03T18:24:16;3.40;;;1.90;;
30635;SDS011;17400;52.392;9.750;2022-10-03T18:26:53;4.68;;;2.30;;
30635;SDS011;17400;52.392;9.750;2022-10-03T18:29:30;4.45;;;2.08;;
30635;SDS011;17400;52.392;9.750;2022-10-03T18:32:04;2.95;;;2.20;;
30635;SDS011;17400;52.392;9.750;2022-10-03T18:34:41;8.40;;;2.58;;
30635;SDS011;17400;52.392;9.750;2022-10-03T18:40:20;4.72;;;2.33;;
30635;SDS011;17400;52.392;9.750;2022-10-03T18:42:53;6.13;;;3.22;;
30635;SDS011;17400;52.392;9.750;2022-10-03T18:45:24;6.45;;;2.65;;
30635;SDS011;17400;52.392;9.750;2022-10-03T18:47:58;6.18;;;2.30;;
30635;SDS011;17400;52.392;9.750;2022-10-03T18:50:31;6.43;;;2.70;;
30635;SDS011;17400;52.392;9.750;2022-10-03T18:53:13;7.60;;;3.15;;
30635;SDS011;17400;52.392;9.750;2022-10-03T18:55:46;8.23;;;2.47;;
30635;SDS011;17400;52.392;9.750;2022-10-03T18:58:18;5.32;;;2.05;;
30635;SDS011;17400;52.392;9.750;2022-10-03T19:00:50;6.50;;;2.55;;
30635;SDS011;17400;52.392;9.750;2022-10-03T19:03:26;6.93;;;2.95;;
30635;SDS011;17400;52.392;9.750;2022-10-03T19:06:02;5.68;;;3.35;;
30635;SDS011;17400;52.392;9.750;2022-10-03T19:08:36;3.92;;;2.58;;
30635;SDS011;17400;52.392;9.750;2022-10-03T19:11:09;5.60;;;2.05;;
30635;SDS011;17400;52.392;9.750;2022-10-03T19:13:42;4.60;;;1.90;;
30635;SDS011;17400;52.392;9.750;2022-10-03T19:16:23;5.72;;;2.95;;
30635;SDS011;17400;52.392;9.750;2022-10-03T19:19:03;5.88;;;2.97;;